Overview Statistics Trail Chart Weather Telemetry Raw packets
 

This is the latest recevied weather packets stored in our database for station/object HA5KNF-10. If no packets are shown the sender has not sent any weather packets the latest 10 day(s).

<< 1 2 3 4 5 6 7 >>
Time Temp. Humidity Pressure Rain* Wind** Luminosity Snow
1788380987 23.89° C 38% 1005.3 hPa - - - -
1788377447 24.44° C 37% 1005.2 hPa - - - -
1788373907 25° C 36% 1005 hPa - - - -
1788370367 25.56° C 35% 1004.5 hPa - - - -
1788366826 26.11° C 34% 1004.7 hPa - - - -
1788356205 26.67° C 32% 1005.5 hPa - - - -
1788352665 26.11° C 32% 1006 hPa - - - -
1788349124 25° C 35% 1006.8 hPa - - - -
1788345584 23.89° C 39% 1007.4 hPa - - - -
1788342044 22.78° C 38% 1007.8 hPa - - - -
1788338504 22.22° C 37% 1008.1 hPa - - - -
1788334964 22.22° C 37% 1007.8 hPa - - - -
1788331423 21.67° C 37% 1007.6 hPa - - - -
1788327883 21.67° C 37% 1007.5 hPa - - - -
1788324343 21.67° C 37% 1007.2 hPa - - - -
1788320812 22.22° C 37% 1007 hPa - - - -
1788317263 22.22° C 36% 1007.1 hPa - - - -
1788313723 22.78° C 36% 1006.9 hPa - - - -
1788310183 22.78° C 36% 1007 hPa - - - -
1788306643 23.33° C 36% 1007 hPa - - - -
1788303102 23.33° C 35% 1006.9 hPa - - - -
1788299562 23.89° C 35% 1006.6 hPa - - - -
1788296022 23.89° C 34% 1006.3 hPa - - - -
1788292482 24.44° C 34% 1006 hPa - - - -
1788288942 25° C 33% 1005.9 hPa - - - -

* Rain since midnight (hover to see other rain measurements)
** Current wind speed in m/s (hover to see current wind gust speed)